createdAt,value
2019-01-28T00:01:09.954Z,98263.88
2019-01-28T00:03:42.426Z,98262.03
2019-01-28T00:06:12.197Z,98260.45
2019-01-28T00:08:41.845Z,98272.42
2019-01-28T00:11:11.525Z,98271.63
2019-01-28T00:13:41.270Z,98274.02
2019-01-28T00:16:11.014Z,98272.44
2019-01-28T00:18:40.662Z,98273.21
2019-01-28T00:21:10.343Z,98270.83
2019-01-28T00:23:40.122Z,98276.14
2019-01-28T00:26:09.810Z,98277.23
2019-01-28T00:28:39.556Z,98280.42
2019-01-28T00:31:09.277Z,98282.27
2019-01-28T00:33:38.948Z,98281.77
2019-01-28T00:36:08.567Z,98286.28
2019-01-28T00:38:38.224Z,98291.34
2019-01-28T00:41:07.902Z,98290.53
2019-01-28T00:43:37.548Z,98290.27
2019-01-28T00:46:07.262Z,98289.76
2019-01-28T00:48:36.867Z,98290.78
2019-01-28T00:51:06.584Z,98288.13
2019-01-28T00:53:36.264Z,98296.94
2019-01-28T00:56:06.135Z,98291.87
2019-01-28T00:58:35.712Z,98296.11
2019-01-28T01:01:05.414Z,98294.01
2019-01-28T01:03:35.192Z,98299.08
2019-01-28T01:06:05.074Z,98301.44
2019-01-28T01:08:34.697Z,98300.92
2019-01-28T01:11:04.564Z,98300.12
2019-01-28T01:13:34.334Z,98309.17
2019-01-28T01:16:04.135Z,98307.58
2019-01-28T01:18:33.726Z,98302.52
2019-01-28T01:21:03.509Z,98299.08
2019-01-28T01:23:33.163Z,98303.59
2019-01-28T01:26:02.921Z,98303.28
2019-01-28T01:28:32.713Z,98298.27
2019-01-28T01:31:02.863Z,98303.53
2019-01-28T01:33:32.842Z,98311.53
2019-01-28T01:36:02.438Z,98317.63
2019-01-28T01:38:32.066Z,98312.58
2019-01-28T01:41:04.072Z,98317.11
2019-01-28T01:43:33.826Z,98320.03
2019-01-28T01:46:03.591Z,98323.76
2019-01-28T01:48:33.202Z,98326.14
2019-01-28T01:51:03.004Z,98324.55
2019-01-28T01:53:32.829Z,98321.37
2019-01-28T01:56:02.822Z,98324.03
2019-01-28T01:58:32.742Z,98331.23
2019-01-28T02:01:03.045Z,98326.16
2019-01-28T02:03:32.734Z,98327.96
2019-01-28T02:06:02.458Z,98332.25
2019-01-28T02:08:32.200Z,98329.31
2019-01-28T02:11:02.867Z,98335.43
2019-01-28T02:13:32.673Z,98334.38
2019-01-28T02:16:03.436Z,98344.76
2019-01-28T02:18:33.209Z,98342.86
2019-01-28T02:21:03.414Z,98344.75
2019-01-28T02:23:33.139Z,98340.77
2019-01-28T02:26:02.905Z,98340.20
2019-01-28T02:28:32.729Z,98340.52
2019-01-28T02:31:02.904Z,98340.22
2019-01-28T02:33:32.640Z,98341.74
2019-01-28T02:36:02.547Z,98343.92
2019-01-28T02:38:32.250Z,98344.16
2019-01-28T02:41:02.818Z,98344.39
2019-01-28T02:43:32.599Z,98342.55
2019-01-28T02:46:02.406Z,98344.40
2019-01-28T02:48:32.238Z,98338.59
2019-01-28T02:51:02.285Z,98339.42
2019-01-28T02:53:31.898Z,98330.52
2019-01-28T02:56:02.358Z,98332.92
2019-01-28T02:58:31.983Z,98341.25
2019-01-28T03:01:01.869Z,98331.67
2019-01-28T03:03:31.560Z,98334.52
2019-01-28T03:06:01.245Z,98331.37
2019-01-28T03:08:31.002Z,98333.19
2019-01-28T03:11:00.689Z,98336.93
2019-01-28T03:13:30.523Z,98336.73
2019-01-28T03:16:00.263Z,98336.95
2019-01-28T03:18:29.957Z,98330.78
2019-01-28T03:20:59.710Z,98332.97
2019-01-28T03:23:30.083Z,98334.28
2019-01-28T03:25:59.997Z,98332.05
2019-01-28T03:28:30.870Z,98338.77
2019-01-28T03:31:00.581Z,98336.66
2019-01-28T03:33:30.890Z,98335.54
2019-01-28T03:36:00.610Z,98336.55
2019-01-28T03:38:31.029Z,98341.54
2019-01-28T03:41:01.019Z,98344.03
2019-01-28T03:43:30.931Z,98340.13
2019-01-28T03:46:00.602Z,98344.41
2019-01-28T03:48:30.960Z,98334.63
2019-01-28T03:51:00.751Z,98330.66
2019-01-28T03:53:30.581Z,98337.03
2019-01-28T03:56:00.435Z,98338.64
2019-01-28T03:58:30.841Z,98331.99
2019-01-28T04:01:00.632Z,98336.80
2019-01-28T04:03:31.015Z,98324.02
2019-01-28T04:06:00.854Z,98324.50
2019-01-28T04:08:30.886Z,98322.69
2019-01-28T04:11:00.593Z,98323.23
2019-01-28T04:13:31.005Z,98314.95
2019-01-28T04:16:00.808Z,98314.69
2019-01-28T04:18:31.234Z,98320.27
2019-01-28T04:21:00.995Z,98316.02
2019-01-28T04:23:30.753Z,98317.34
2019-01-28T04:26:00.455Z,98316.80
2019-01-28T04:28:31.149Z,98317.59
2019-01-28T04:31:00.800Z,98317.59
2019-01-28T04:33:30.507Z,98318.65
2019-01-28T04:36:00.166Z,98315.73
2019-01-28T04:38:30.890Z,98319.16
2019-01-28T04:41:00.577Z,98316.80
2019-01-28T04:43:30.392Z,98317.84
2019-01-28T04:46:00.250Z,98317.30
2019-01-28T04:48:29.908Z,98313.33
2019-01-28T04:50:59.671Z,98313.59
2019-01-28T04:53:29.538Z,98310.41
2019-01-28T04:55:59.431Z,98315.98
2019-01-28T04:58:29.393Z,98316.77
2019-01-28T05:00:59.361Z,98314.39
2019-01-28T05:03:29.255Z,98319.16
2019-01-28T05:05:59.318Z,98321.02
2019-01-28T05:08:28.990Z,98323.41
2019-01-28T05:10:58.920Z,98328.16
2019-01-28T05:13:28.797Z,98331.41
2019-01-28T05:15:58.551Z,98330.06
2019-01-28T05:18:28.293Z,98333.03
2019-01-28T05:20:58.149Z,98329.81
2019-01-28T05:23:28.100Z,98328.47
2019-01-28T05:25:57.894Z,98331.69
2019-01-28T05:28:27.810Z,98330.10
2019-01-28T05:30:57.785Z,98322.13
2019-01-28T05:33:27.915Z,98326.58
2019-01-28T05:35:58.016Z,98327.95
2019-01-28T05:38:27.795Z,98321.55
2019-01-28T05:40:57.429Z,98318.86
2019-01-28T05:43:27.239Z,98319.41
2019-01-28T05:45:57.056Z,98311.41
2019-01-28T05:48:26.838Z,98314.88
2019-01-28T05:50:56.519Z,98313.84
2019-01-28T05:53:26.259Z,98312.23
2019-01-28T05:55:55.976Z,98308.78
2019-01-28T05:58:25.664Z,98312.22
2019-01-28T06:00:55.388Z,98314.90
2019-01-28T06:03:25.195Z,98315.44
2019-01-28T06:05:54.940Z,98313.02
2019-01-28T06:08:24.571Z,98311.95
2019-01-28T06:10:54.188Z,98318.36
2019-01-28T06:13:23.780Z,98317.55
2019-01-28T06:15:53.518Z,98323.08
2019-01-28T06:18:23.438Z,98319.94
2019-01-28T06:20:53.105Z,98326.05
2019-01-28T06:23:22.922Z,98319.66
2019-01-28T06:25:52.867Z,98323.66
2019-01-28T06:28:22.614Z,98324.19
2019-01-28T06:30:52.439Z,98319.88
2019-01-28T06:33:22.138Z,98324.41
2019-01-28T06:35:52.010Z,98327.03
2019-01-28T06:38:22.070Z,98328.41
2019-01-28T06:40:51.813Z,98321.75
2019-01-28T06:43:21.439Z,98331.87
2019-01-28T06:45:51.120Z,98332.13
2019-01-28T06:48:20.736Z,98328.39
2019-01-28T06:50:51.931Z,98334.00
2019-01-28T06:53:21.616Z,98338.23
2019-01-28T06:55:51.216Z,98345.98
2019-01-28T06:58:20.914Z,98343.24
2019-01-28T07:00:50.531Z,98343.29
2019-01-28T07:03:20.240Z,98347.55
2019-01-28T07:05:50.034Z,98353.40
2019-01-28T07:08:19.976Z,98357.42
2019-01-28T07:10:49.632Z,98350.25
2019-01-28T07:13:19.264Z,98353.45
2019-01-28T07:15:48.962Z,98359.27
2019-01-28T07:18:18.641Z,98354.47
2019-01-28T07:20:48.324Z,98361.14
2019-01-28T07:23:17.917Z,98361.94
2019-01-28T07:25:47.558Z,98365.39
2019-01-28T07:28:17.142Z,98367.28
2019-01-28T07:30:46.907Z,98368.86
2019-01-28T07:33:16.519Z,98368.30
2019-01-28T07:35:46.253Z,98369.34
2019-01-28T07:38:15.906Z,98374.36
2019-01-28T07:40:45.674Z,98376.78
2019-01-28T07:43:15.360Z,98377.26
2019-01-28T07:45:45.843Z,98380.20
2019-01-28T07:48:15.549Z,98386.00
2019-01-28T07:50:45.154Z,98379.38
2019-01-28T07:53:14.781Z,98384.35
2019-01-28T07:55:44.491Z,98384.37
2019-01-28T07:58:14.244Z,98387.66
2019-01-28T08:00:43.996Z,98388.77
2019-01-28T08:03:13.711Z,98395.64
2019-01-28T08:05:43.389Z,98397.80
2019-01-28T08:08:13.127Z,98396.98
2019-01-28T08:10:44.058Z,98402.30
2019-01-28T08:13:13.740Z,98399.40
2019-01-28T08:15:43.477Z,98402.59
2019-01-28T08:18:13.152Z,98402.84
2019-01-28T08:20:43.360Z,98403.41
2019-01-28T08:23:12.994Z,98407.34
2019-01-28T08:25:42.581Z,98400.70
2019-01-28T08:28:12.228Z,98398.36
2019-01-28T08:30:41.937Z,98406.58
2019-01-28T08:33:11.639Z,98408.75
2019-01-28T08:35:41.351Z,98413.28
2019-01-28T08:38:11.039Z,98411.69
2019-01-28T08:40:40.783Z,98405.27
2019-01-28T08:43:10.917Z,98406.86
2019-01-28T08:45:40.587Z,98405.01
2019-01-28T08:48:17.999Z,98403.70
2019-01-28T08:50:41.608Z,98408.23
2019-01-28T08:53:11.510Z,98415.42
2019-01-28T08:55:41.262Z,98409.55
2019-01-28T08:58:11.035Z,98405.31
2019-01-28T09:00:41.930Z,98411.20
2019-01-28T09:03:11.676Z,98410.36
2019-01-28T09:05:41.400Z,98416.00
2019-01-28T09:08:11.224Z,98413.61
2019-01-28T09:10:43.962Z,98413.33
2019-01-28T09:13:13.610Z,98419.98
2019-01-28T09:15:44.186Z,98421.30
2019-01-28T09:18:13.982Z,98430.08
2019-01-28T09:20:43.711Z,98423.72
2019-01-28T09:23:13.416Z,98427.71
2019-01-28T09:25:43.069Z,98433.57
2019-01-28T09:28:12.882Z,98433.03
2019-01-28T09:30:43.097Z,98431.90
2019-01-28T09:33:12.687Z,98440.21
2019-01-28T09:35:42.394Z,98445.84
2019-01-28T09:38:12.210Z,98442.11
2019-01-28T09:40:42.343Z,98457.27
2019-01-28T09:43:12.049Z,98450.62
2019-01-28T09:45:42.859Z,98447.16
2019-01-28T09:48:14.550Z,98451.13
2019-01-28T09:50:44.878Z,98446.10
2019-01-28T09:53:14.828Z,98450.33
2019-01-28T09:55:44.609Z,98450.62
2019-01-28T09:58:14.233Z,98450.39
2019-01-28T10:00:47.103Z,98450.91
2019-01-28T10:03:17.165Z,98451.72
2019-01-28T10:05:46.884Z,98452.23
2019-01-28T10:08:16.592Z,98453.87
2019-01-28T10:10:46.362Z,98462.89
2019-01-28T10:13:16.122Z,98460.13
2019-01-28T10:15:45.804Z,98471.52
2019-01-28T10:18:15.505Z,98468.04
2019-01-28T10:20:47.296Z,98476.34
2019-01-28T10:23:17.061Z,98468.64
2019-01-28T10:25:46.931Z,98473.40
2019-01-28T10:28:16.850Z,98468.14
2019-01-28T10:30:47.081Z,98474.80
2019-01-28T10:33:16.722Z,98474.58
2019-01-28T10:35:46.854Z,98473.52
2019-01-28T10:38:16.821Z,98476.95
2019-01-28T10:40:46.762Z,98487.33
2019-01-28T10:43:16.537Z,98486.59
2019-01-28T10:45:47.765Z,98483.66
2019-01-28T10:48:18.005Z,98487.61
2019-01-28T10:50:47.761Z,98487.41
2019-01-28T10:53:17.416Z,98490.58
2019-01-28T10:55:47.211Z,98491.68
2019-01-28T10:58:16.947Z,98486.98
2019-01-28T11:00:49.125Z,98481.68
2019-01-28T11:03:21.278Z,98482.20
2019-01-28T11:05:51.076Z,98481.91
2019-01-28T11:08:20.786Z,98479.95
2019-01-28T11:10:50.476Z,98474.72
2019-01-28T11:13:20.354Z,98479.67
2019-01-28T11:15:50.024Z,98478.33
2019-01-28T11:18:28.163Z,98475.79
2019-01-28T11:20:58.171Z,98483.26
2019-01-28T11:23:27.885Z,98482.70
2019-01-28T11:25:57.862Z,98476.12
2019-01-28T11:28:27.628Z,98491.75
2019-01-28T11:31:04.806Z,98489.64
2019-01-28T11:33:39.309Z,98481.83
2019-01-28T11:36:06.574Z,98490.34
2019-01-28T11:38:36.423Z,98490.41
2019-01-28T11:41:06.269Z,98493.69
2019-01-28T11:43:35.912Z,98496.12
2019-01-28T11:46:07.387Z,98499.79
2019-01-28T11:48:37.186Z,98495.84
2019-01-28T11:51:06.906Z,98495.02
2019-01-28T11:53:36.584Z,98499.04
2019-01-28T11:56:06.276Z,98496.38
2019-01-28T11:58:35.872Z,98506.58
2019-01-28T12:01:31.071Z,98509.54
2019-01-28T12:04:00.685Z,98507.80
2019-01-28T12:06:30.424Z,98513.69
2019-01-28T12:09:00.161Z,98516.13
2019-01-28T12:11:29.931Z,98515.04
2019-01-28T12:13:59.570Z,98515.05
2019-01-28T12:16:29.291Z,98521.92
2019-01-28T12:18:59.060Z,98524.33
2019-01-28T12:21:28.620Z,98527.52
2019-01-28T12:23:58.374Z,98527.50
2019-01-28T12:26:28.090Z,98527.00
2019-01-28T12:28:57.870Z,98527.23
2019-01-28T12:31:27.600Z,98534.61
2019-01-28T12:33:57.305Z,98536.64
2019-01-28T12:36:26.973Z,98538.88
2019-01-28T12:38:56.586Z,98543.64
2019-01-28T12:41:26.244Z,98542.31
2019-01-28T12:43:55.924Z,98545.88
2019-01-28T12:46:25.569Z,98541.38
2019-01-28T12:48:55.192Z,98544.50
2019-01-28T12:51:24.824Z,98553.88
2019-01-28T12:53:54.427Z,98552.83
2019-01-28T12:56:24.112Z,98551.50
2019-01-28T12:58:53.720Z,98556.56
2019-01-28T13:01:23.618Z,98562.95
2019-01-28T13:03:53.489Z,98556.81
2019-01-28T13:06:23.208Z,98564.77
2019-01-28T13:08:52.846Z,98570.67
2019-01-28T13:11:22.421Z,98566.17
2019-01-28T13:13:52.214Z,98572.83
2019-01-28T13:16:21.894Z,98574.16
2019-01-28T13:18:51.662Z,98576.28
2019-01-28T13:21:21.288Z,98578.70
2019-01-28T13:23:50.966Z,98577.92
2019-01-28T13:26:20.546Z,98581.38
2019-01-28T13:28:50.245Z,98588.51
2019-01-28T13:31:19.968Z,98584.84
2019-01-28T13:33:49.676Z,98585.63
2019-01-28T13:36:19.266Z,98588.04
2019-01-28T13:38:48.890Z,98589.41
2019-01-28T13:41:18.560Z,98595.00
2019-01-28T13:43:48.352Z,98596.59
2019-01-28T13:46:18.014Z,98596.09
2019-01-28T13:48:47.604Z,98597.42
2019-01-28T13:51:17.452Z,98604.89
2019-01-28T13:53:47.076Z,98609.44
2019-01-28T13:56:16.817Z,98610.22
2019-01-28T13:58:46.521Z,98615.25
2019-01-28T14:01:16.350Z,98631.48
2019-01-28T14:03:50.501Z,98628.52
2019-01-28T14:06:20.245Z,98635.45
2019-01-28T14:08:49.956Z,98639.48
2019-01-28T14:11:20.190Z,98641.09
2019-01-28T14:13:49.808Z,98637.66
2019-01-28T14:16:19.436Z,98641.38
2019-01-28T14:18:49.079Z,98646.17
2019-01-28T14:21:18.725Z,98650.73
2019-01-28T14:23:48.312Z,98657.08
2019-01-28T14:26:18.011Z,98661.03
2019-01-28T14:28:47.628Z,98664.27
2019-01-28T14:31:20.187Z,98670.43
2019-01-28T14:33:49.816Z,98669.83
2019-01-28T14:36:19.638Z,98682.65
2019-01-28T14:38:49.319Z,98686.39
2019-01-28T14:41:20.790Z,98686.91
2019-01-28T14:43:50.473Z,98688.98
2019-01-28T14:46:20.082Z,98689.00
2019-01-28T14:48:50.139Z,98694.38
2019-01-28T14:51:22.353Z,98705.53
2019-01-28T14:53:51.984Z,98704.75
2019-01-28T14:56:22.088Z,98706.31
2019-01-28T14:58:51.810Z,98714.05
2019-01-28T15:01:21.968Z,98711.17
2019-01-28T15:03:51.640Z,98715.63
2019-01-28T15:06:21.299Z,98719.95
2019-01-28T15:08:51.029Z,98719.70
2019-01-28T15:11:20.724Z,98721.25
2019-01-28T15:13:50.311Z,98720.94
2019-01-28T15:16:20.013Z,98727.58
2019-01-28T15:18:49.649Z,98727.86
2019-01-28T15:21:22.730Z,98730.02
2019-01-28T15:23:52.311Z,98737.00
2019-01-28T15:26:22.129Z,98740.33
2019-01-28T15:28:51.789Z,98739.84
2019-01-28T15:31:21.477Z,98745.53
2019-01-28T15:33:51.168Z,98746.44
2019-01-28T15:36:20.865Z,98752.53
2019-01-28T15:38:50.484Z,98753.70
2019-01-28T15:41:20.156Z,98757.17
2019-01-28T15:43:49.865Z,98769.29
2019-01-28T15:46:19.485Z,98773.59
2019-01-28T15:48:49.125Z,98779.18
2019-01-28T15:51:23.582Z,98780.53
2019-01-28T15:53:53.213Z,98781.06
2019-01-28T15:56:22.868Z,98782.68
2019-01-28T15:58:52.465Z,98786.11
2019-01-28T16:01:25.277Z,98789.12
2019-01-28T16:03:54.906Z,98792.13
2019-01-28T16:06:24.557Z,98802.38
2019-01-28T16:08:54.287Z,98802.00
2019-01-28T16:11:25.371Z,98805.89
2019-01-28T16:13:56.828Z,98810.70
2019-01-28T16:16:27.671Z,98806.86
2019-01-28T16:19:03.309Z,98810.48
2019-01-28T16:21:33.731Z,98816.77
2019-01-28T16:24:03.477Z,98817.30
2019-01-28T16:26:33.207Z,98821.48
2019-01-28T16:29:02.843Z,98817.22
2019-01-28T16:31:32.691Z,98831.07
2019-01-28T16:34:02.328Z,98822.04
2019-01-28T16:36:32.287Z,98831.98
2019-01-28T16:39:01.907Z,98835.90
2019-01-28T16:41:34.124Z,98839.29
2019-01-28T16:44:04.203Z,98838.39
2019-01-28T16:46:33.858Z,98844.31
2019-01-28T16:49:03.436Z,98842.72
2019-01-28T16:51:33.774Z,98848.05
2019-01-28T16:54:03.439Z,98851.94
2019-01-28T16:56:33.479Z,98861.06
2019-01-28T16:59:03.240Z,98857.66
2019-01-28T17:01:32.941Z,98864.73
2019-01-28T17:04:02.673Z,98867.96
2019-01-28T17:06:32.351Z,98868.30
2019-01-28T17:09:01.964Z,98871.44
2019-01-28T17:11:31.690Z,98879.97
2019-01-28T17:14:01.421Z,98878.05
2019-01-28T17:16:31.075Z,98881.96
2019-01-28T17:19:00.735Z,98884.77
2019-01-28T17:21:30.389Z,98882.94
2019-01-28T17:24:00.050Z,98902.19
2019-01-28T17:26:30.518Z,98893.94
2019-01-28T17:29:02.834Z,98900.33
2019-01-28T17:31:44.394Z,98904.23
2019-01-28T17:34:14.383Z,98911.41
2019-01-28T17:36:44.187Z,98922.18
2019-01-28T17:39:14.116Z,98918.73
2019-01-28T17:41:43.861Z,98923.98
2019-01-28T17:44:13.486Z,98931.46
2019-01-28T17:46:43.221Z,98928.28
2019-01-28T17:49:12.967Z,98933.94
2019-01-28T17:51:42.822Z,98936.91
2019-01-28T17:54:12.598Z,98936.97
2019-01-28T17:56:42.185Z,98950.17
2019-01-28T17:59:11.929Z,98955.91
2019-01-28T18:01:41.632Z,98961.56
2019-01-28T18:04:11.293Z,98961.94
2019-01-28T18:06:41.037Z,98954.38
2019-01-28T18:09:10.846Z,98969.17
2019-01-28T18:11:40.458Z,98968.72
2019-01-28T18:14:10.164Z,98973.67
2019-01-28T18:16:39.792Z,98983.16
2019-01-28T18:19:09.447Z,98984.92
2019-01-28T18:21:39.115Z,98990.61
2019-01-28T18:24:08.840Z,98996.70
2019-01-28T18:26:38.599Z,98998.66
2019-01-28T18:29:11.361Z,99002.61
2019-01-28T18:31:40.946Z,99000.19
2019-01-28T18:34:10.605Z,99009.57
2019-01-28T18:36:40.190Z,99015.42
2019-01-28T18:39:11.923Z,99030.61
2019-01-28T18:41:41.491Z,99043.22
2019-01-28T18:44:11.114Z,99038.88
2019-01-28T18:46:40.725Z,99041.48
2019-01-28T18:49:10.363Z,99045.06
2019-01-28T18:51:40.062Z,99049.13
2019-01-28T18:54:09.680Z,99060.56
2019-01-28T18:56:39.372Z,99055.37
2019-01-28T18:59:09.070Z,99068.89
2019-01-28T19:01:38.660Z,99067.80
2019-01-28T19:04:08.587Z,99076.90
2019-01-28T19:06:51.260Z,99077.91
2019-01-28T19:09:46.155Z,99076.58
2019-01-28T19:12:24.890Z,99090.64
2019-01-28T19:15:25.757Z,99093.87
2019-01-28T19:18:05.709Z,99107.63
2019-01-28T19:20:54.375Z,99116.03
2019-01-28T19:23:24.022Z,99119.56
2019-01-28T19:25:53.633Z,99127.31
2019-01-28T19:28:23.367Z,99130.34
2019-01-28T19:30:52.972Z,99143.23
2019-01-28T19:33:22.612Z,99148.76
2019-01-28T19:35:52.280Z,99147.15
2019-01-28T19:38:22.484Z,99157.72
2019-01-28T19:40:52.191Z,99159.81
2019-01-28T19:43:21.946Z,99165.13
2019-01-28T19:45:51.706Z,99168.70
2019-01-28T19:48:21.359Z,99176.58
2019-01-28T19:50:51.043Z,99182.19
2019-01-28T19:53:20.922Z,99186.63
2019-01-28T19:55:50.634Z,99193.20
2019-01-28T19:58:20.258Z,99200.53
2019-01-28T20:00:49.964Z,99194.47
2019-01-28T20:03:19.702Z,99208.70
2019-01-28T20:05:49.490Z,99215.46
2019-01-28T20:08:19.187Z,99218.17
2019-01-28T20:10:48.931Z,99220.33
2019-01-28T20:13:18.616Z,99237.24
2019-01-28T20:15:48.303Z,99237.83
2019-01-28T20:18:18.537Z,99260.05
2019-01-28T20:20:48.129Z,99248.48
2019-01-28T20:23:18.664Z,99268.44
2019-01-28T20:25:48.301Z,99254.69
2019-01-28T20:28:18.050Z,99261.86
2019-01-28T20:30:47.723Z,99265.23
2019-01-28T20:33:20.396Z,99270.09
2019-01-28T20:35:50.107Z,99273.02
2019-01-28T20:38:19.860Z,99286.34
2019-01-28T20:40:49.481Z,99296.86
2019-01-28T20:43:23.930Z,99297.75
2019-01-28T20:45:50.521Z,99304.73
2019-01-28T20:48:20.115Z,99300.63
2019-01-28T20:50:49.763Z,99315.41
2019-01-28T20:53:19.464Z,99317.39
2019-01-28T20:55:49.126Z,99329.75
2019-01-28T20:58:18.708Z,99336.89
2019-01-28T21:00:50.036Z,99349.92
2019-01-28T21:03:22.319Z,99345.13
2019-01-28T21:05:51.956Z,99353.73
2019-01-28T21:08:22.489Z,99357.36
2019-01-28T21:10:52.236Z,99367.14
2019-01-28T21:13:21.901Z,99359.91
2019-01-28T21:15:51.551Z,99369.59
2019-01-28T21:18:21.238Z,99361.03
2019-01-28T21:20:50.998Z,99374.19
2019-01-28T21:23:20.692Z,99377.65
2019-01-28T21:25:50.303Z,99376.52
2019-01-28T21:28:19.990Z,99379.64
2019-01-28T21:30:49.847Z,99391.30
2019-01-28T21:33:19.443Z,99396.03
2019-01-28T21:36:06.971Z,99401.44
2019-01-28T21:38:43.334Z,99401.62
2019-01-28T21:41:13.231Z,99403.69
2019-01-28T21:43:43.035Z,99413.14
2019-01-28T21:46:12.793Z,99408.85
2019-01-28T21:48:42.503Z,99422.14
2019-01-28T21:51:12.165Z,99426.06
2019-01-28T21:53:41.761Z,99415.95
2019-01-28T21:56:11.407Z,99427.58
2019-01-28T21:58:41.041Z,99420.91
2019-01-28T22:01:10.670Z,99427.39
2019-01-28T22:03:40.297Z,99439.99
2019-01-28T22:06:10.001Z,99432.00
2019-01-28T22:08:39.573Z,99429.03
2019-01-28T22:11:09.151Z,99432.77
2019-01-28T22:13:38.762Z,99434.38
2019-01-28T22:16:08.341Z,99437.95
2019-01-28T22:18:37.945Z,99434.27
2019-01-28T22:21:12.791Z,99447.73
2019-01-28T22:23:42.875Z,99446.11
2019-01-28T22:26:12.533Z,99445.63
2019-01-28T22:28:42.179Z,99448.44
2019-01-28T22:31:11.903Z,99439.70
2019-01-28T22:33:41.459Z,99448.85
2019-01-28T22:36:11.160Z,99451.30
2019-01-28T22:38:41.414Z,99453.98
2019-01-28T22:41:11.309Z,99460.48
2019-01-28T22:43:40.865Z,99467.96
2019-01-28T22:46:10.571Z,99472.92
2019-01-28T22:48:40.197Z,99475.25
2019-01-28T22:51:09.819Z,99481.94
2019-01-28T22:53:39.417Z,99479.66
2019-01-28T22:56:09.212Z,99485.75
2019-01-28T22:58:38.778Z,99492.08
2019-01-28T23:01:35.064Z,99491.54
2019-01-28T23:08:05.241Z,99499.18
2019-01-28T23:10:35.393Z,99508.60
2019-01-28T23:13:05.935Z,99511.05
2019-01-28T23:15:35.943Z,99511.48
2019-01-28T23:18:06.499Z,99516.71
2019-01-28T23:20:36.613Z,99522.56
2019-01-28T23:23:06.953Z,99521.45
2019-01-28T23:25:36.908Z,99526.77
2019-01-28T23:28:07.226Z,99531.73
2019-01-28T23:30:37.414Z,99538.18
2019-01-28T23:33:07.590Z,99546.09
2019-01-28T23:35:37.622Z,99539.86
2019-01-28T23:38:07.623Z,99540.91
2019-01-28T23:40:37.748Z,99544.97
2019-01-28T23:43:08.351Z,99548.00
2019-01-28T23:45:38.388Z,99551.88
2019-01-28T23:48:08.514Z,99552.65
2019-01-28T23:50:38.508Z,99553.59
2019-01-28T23:53:08.565Z,99560.44
2019-01-28T23:55:38.566Z,99557.65
2019-01-28T23:58:11.266Z,99558.25
